Aérodrome :
LOGIN :

S'inscrire | Disclaimer

   EN    FR    IT 

 










Légende :    VFR   VFR Marginal   IFR   IFR Intensif   IFR Très Intensif
Visi : 
Plafond : 
>= 8 km
>= 3000ft
5 à 8 km
1000 à 3000 ft
1500m à 5 km
500 à 1000 ft
800 à 1500m
200 à 500 ft
< 800m
< 200 ft
Symboles :   Orages  Brouillard  Fortes neiges  Fortes précipitations  Vent > 20 kt
SIGMETs :   Divers  Orages  Givrage  Turbulence  Onde Orograph.  Cendres Volcan.






- Altitude de l'aérodrome : 117 ft
- Code IATA : NWI


EGSH - Norwich

DERNIER METAR :
  • 091950Z 24005KT CAVOK M02/M03 Q1007

METARs EXPIRÉS :
  • 091920Z 23004KT CAVOK M02/M03 Q1007 NOSIG
  • 090450Z AUTO 34009KT 300V010 9999 FEW010/// SCT024/// 02/M01 Q1006 RERA
  • 091850Z 26003KT CAVOK M02/M03 Q1007
  • 091820Z 25006KT CAVOK M02/M03 Q1007
  • 091750Z 24004KT CAVOK M02/M03 Q1007 NOSIG
  • 091720Z 24004KT CAVOK M01/M03 Q1007 NOSIG

TAF TAF EGSH
Valide du 09 à 15h jusqu'au 10 à 00h UTC


091355Z 0915/0924 25005KT 9999 FEW040
PROB30
TEMPO 0918/0921 8000
TEMPO 0921/0924 6000
PROB40
TEMPO 0921/0924 4000 BR
ATIS : +44 1603 420 640



MET'MAP, la Météo Aéronautique d'un coup d'oeil ! - Copyright ORBIFLY Décembre 2007 - Disclaimer

ORBIFLY MET'MAP TEAM :

Programmation & Développement : Alexandra Zaïnal
Sur une idée originale de : Baudouin d'Aumeries
Soutien technique & logistique : Manuel Goepfert
Assistance : Marc-Olivier Méhu




SOURCES & CREDITS :

   NOAA